sensor_id;sensor_type;location;lat;lon;timestamp;P1;durP1;ratioP1;P2;durP2;ratioP2
13834;SDS011;6988;52.614;13.500;2022-09-01T00:01:22;2.40;;;0.97;;
13834;SDS011;6988;52.614;13.500;2022-09-01T00:06:16;2.30;;;1.03;;
13834;SDS011;6988;52.614;13.500;2022-09-01T00:11:11;1.70;;;0.67;;
13834;SDS011;6988;52.614;13.500;2022-09-01T00:16:03;1.20;;;1.00;;
13834;SDS011;6988;52.614;13.500;2022-09-01T00:20:56;2.07;;;1.10;;
13834;SDS011;6988;52.614;13.500;2022-09-01T00:25:49;1.27;;;0.80;;
13834;SDS011;6988;52.614;13.500;2022-09-01T00:30:40;1.30;;;0.90;;
13834;SDS011;6988;52.614;13.500;2022-09-01T00:35:32;1.03;;;0.80;;
13834;SDS011;6988;52.614;13.500;2022-09-01T00:40:26;2.13;;;0.77;;
13834;SDS011;6988;52.614;13.500;2022-09-01T00:45:18;1.70;;;0.80;;
13834;SDS011;6988;52.614;13.500;2022-09-01T00:50:12;1.20;;;0.90;;
13834;SDS011;6988;52.614;13.500;2022-09-01T00:55:07;1.87;;;0.80;;
13834;SDS011;6988;52.614;13.500;2022-09-01T01:00:07;1.10;;;0.70;;
13834;SDS011;6988;52.614;13.500;2022-09-01T01:05:06;1.97;;;0.90;;
13834;SDS011;6988;52.614;13.500;2022-09-01T01:09:59;5.37;;;1.10;;
13834;SDS011;6988;52.614;13.500;2022-09-01T01:14:51;2.33;;;0.90;;
13834;SDS011;6988;52.614;13.500;2022-09-01T01:19:45;1.80;;;0.90;;
13834;SDS011;6988;52.614;13.500;2022-09-01T01:25:01;1.77;;;0.80;;
13834;SDS011;6988;52.614;13.500;2022-09-01T01:29:53;1.57;;;0.80;;
13834;SDS011;6988;52.614;13.500;2022-09-01T01:34:45;1.40;;;0.77;;
13834;SDS011;6988;52.614;13.500;2022-09-01T01:39:37;1.30;;;0.70;;
13834;SDS011;6988;52.614;13.500;2022-09-01T01:44:34;3.17;;;1.10;;
13834;SDS011;6988;52.614;13.500;2022-09-01T01:49:29;1.40;;;0.90;;
13834;SDS011;6988;52.614;13.500;2022-09-01T01:54:21;0.90;;;0.77;;
13834;SDS011;6988;52.614;13.500;2022-09-01T01:59:14;1.30;;;0.90;;
13834;SDS011;6988;52.614;13.500;2022-09-01T02:04:09;1.60;;;0.90;;
13834;SDS011;6988;52.614;13.500;2022-09-01T02:09:06;1.37;;;0.87;;
13834;SDS011;6988;52.614;13.500;2022-09-01T02:13:58;1.63;;;0.90;;
13834;SDS011;6988;52.614;13.500;2022-09-01T02:18:51;1.40;;;0.90;;
13834;SDS011;6988;52.614;13.500;2022-09-01T02:23:45;2.03;;;0.90;;
13834;SDS011;6988;52.614;13.500;2022-09-01T02:28:39;1.67;;;0.90;;
13834;SDS011;6988;52.614;13.500;2022-09-01T02:33:32;2.23;;;1.00;;
13834;SDS011;6988;52.614;13.500;2022-09-01T02:38:25;2.07;;;1.00;;
13834;SDS011;6988;52.614;13.500;2022-09-01T02:43:24;1.70;;;1.00;;
13834;SDS011;6988;52.614;13.500;2022-09-01T02:48:17;2.17;;;1.13;;
13834;SDS011;6988;52.614;13.500;2022-09-01T02:53:11;1.63;;;1.10;;
13834;SDS011;6988;52.614;13.500;2022-09-01T02:58:04;3.90;;;1.20;;
13834;SDS011;6988;52.614;13.500;2022-09-01T03:03:01;1.73;;;1.20;;
13834;SDS011;6988;52.614;13.500;2022-09-01T03:07:55;3.63;;;1.07;;
13834;SDS011;6988;52.614;13.500;2022-09-01T03:12:49;1.30;;;1.00;;
13834;SDS011;6988;52.614;13.500;2022-09-01T03:17:41;2.40;;;0.90;;
13834;SDS011;6988;52.614;13.500;2022-09-01T03:22:34;2.03;;;1.10;;
13834;SDS011;6988;52.614;13.500;2022-09-01T03:27:26;1.70;;;1.10;;
13834;SDS011;6988;52.614;13.500;2022-09-01T03:32:18;1.73;;;1.13;;
13834;SDS011;6988;52.614;13.500;2022-09-01T03:37:09;1.30;;;1.00;;
13834;SDS011;6988;52.614;13.500;2022-09-01T03:42:03;2.13;;;1.00;;
13834;SDS011;6988;52.614;13.500;2022-09-01T03:46:57;1.43;;;1.10;;
13834;SDS011;6988;52.614;13.500;2022-09-01T03:51:51;3.23;;;1.70;;
13834;SDS011;6988;52.614;13.500;2022-09-01T03:56:43;2.93;;;1.40;;
13834;SDS011;6988;52.614;13.500;2022-09-01T04:01:42;2.20;;;1.30;;
13834;SDS011;6988;52.614;13.500;2022-09-01T04:06:36;2.33;;;1.17;;
13834;SDS011;6988;52.614;13.500;2022-09-01T04:11:27;2.47;;;1.30;;
13834;SDS011;6988;52.614;13.500;2022-09-01T04:16:20;2.13;;;1.20;;
13834;SDS011;6988;52.614;13.500;2022-09-01T04:21:34;1.50;;;1.20;;
13834;SDS011;6988;52.614;13.500;2022-09-01T04:26:27;3.07;;;1.20;;
13834;SDS011;6988;52.614;13.500;2022-09-01T04:31:21;2.27;;;1.17;;
13834;SDS011;6988;52.614;13.500;2022-09-01T04:36:14;2.00;;;1.30;;
13834;SDS011;6988;52.614;13.500;2022-09-01T04:41:12;2.47;;;1.43;;
13834;SDS011;6988;52.614;13.500;2022-09-01T04:46:07;2.80;;;1.40;;
13834;SDS011;6988;52.614;13.500;2022-09-01T04:51:00;2.10;;;1.60;;
13834;SDS011;6988;52.614;13.500;2022-09-01T04:56:15;3.83;;;1.60;;
13834;SDS011;6988;52.614;13.500;2022-09-01T05:01:14;2.77;;;1.80;;
13834;SDS011;6988;52.614;13.500;2022-09-01T05:06:11;2.67;;;1.70;;
13834;SDS011;6988;52.614;13.500;2022-09-01T05:11:09;2.70;;;1.73;;
13834;SDS011;6988;52.614;13.500;2022-09-01T05:16:10;3.70;;;1.87;;
13834;SDS011;6988;52.614;13.500;2022-09-01T05:21:07;2.80;;;1.83;;
13834;SDS011;6988;52.614;13.500;2022-09-01T05:26:00;1.90;;;1.70;;
13834;SDS011;6988;52.614;13.500;2022-09-01T05:30:54;2.70;;;1.87;;
13834;SDS011;6988;52.614;13.500;2022-09-01T05:35:52;2.50;;;2.00;;
13834;SDS011;6988;52.614;13.500;2022-09-01T05:40:54;3.73;;;1.77;;
13834;SDS011;6988;52.614;13.500;2022-09-01T05:45:47;2.47;;;1.80;;
13834;SDS011;6988;52.614;13.500;2022-09-01T05:50:40;2.90;;;1.77;;
13834;SDS011;6988;52.614;13.500;2022-09-01T05:55:35;3.17;;;1.60;;
13834;SDS011;6988;52.614;13.500;2022-09-01T06:00:27;2.97;;;1.60;;
13834;SDS011;6988;52.614;13.500;2022-09-01T06:05:24;4.07;;;1.53;;
13834;SDS011;6988;52.614;13.500;2022-09-01T06:10:16;3.43;;;1.60;;
13834;SDS011;6988;52.614;13.500;2022-09-01T06:15:09;2.23;;;1.27;;
13834;SDS011;6988;52.614;13.500;2022-09-01T06:20:06;3.50;;;1.20;;
13834;SDS011;6988;52.614;13.500;2022-09-01T06:25:01;1.93;;;1.10;;
13834;SDS011;6988;52.614;13.500;2022-09-01T06:29:57;2.17;;;1.00;;
13834;SDS011;6988;52.614;13.500;2022-09-01T06:34:51;3.70;;;1.20;;
13834;SDS011;6988;52.614;13.500;2022-09-01T06:39:43;2.80;;;0.90;;
13834;SDS011;6988;52.614;13.500;2022-09-01T06:44:37;1.97;;;1.30;;
13834;SDS011;6988;52.614;13.500;2022-09-01T06:49:31;1.37;;;1.27;;
13834;SDS011;6988;52.614;13.500;2022-09-01T06:54:26;2.90;;;1.07;;
13834;SDS011;6988;52.614;13.500;2022-09-01T06:59:18;2.43;;;1.10;;
13834;SDS011;6988;52.614;13.500;2022-09-01T07:04:14;3.27;;;0.87;;
13834;SDS011;6988;52.614;13.500;2022-09-01T07:09:14;2.13;;;0.80;;
13834;SDS011;6988;52.614;13.500;2022-09-01T07:14:11;1.37;;;0.90;;
13834;SDS011;6988;52.614;13.500;2022-09-01T07:19:05;2.83;;;1.10;;
13834;SDS011;6988;52.614;13.500;2022-09-01T07:24:11;1.93;;;1.10;;
13834;SDS011;6988;52.614;13.500;2022-09-01T07:29:29;2.37;;;0.90;;
13834;SDS011;6988;52.614;13.500;2022-09-01T07:34:21;1.10;;;0.80;;
13834;SDS011;6988;52.614;13.500;2022-09-01T07:39:13;1.37;;;0.77;;
13834;SDS011;6988;52.614;13.500;2022-09-01T07:44:17;2.83;;;0.93;;
13834;SDS011;6988;52.614;13.500;2022-09-01T07:49:33;2.50;;;0.70;;
13834;SDS011;6988;52.614;13.500;2022-09-01T07:54:26;3.07;;;0.87;;
13834;SDS011;6988;52.614;13.500;2022-09-01T07:59:20;3.00;;;0.70;;
13834;SDS011;6988;52.614;13.500;2022-09-01T08:04:17;1.57;;;0.83;;
13834;SDS011;6988;52.614;13.500;2022-09-01T08:09:13;2.10;;;0.60;;
13834;SDS011;6988;52.614;13.500;2022-09-01T08:14:05;3.33;;;0.80;;
13834;SDS011;6988;52.614;13.500;2022-09-01T08:18:58;1.47;;;0.73;;
13834;SDS011;6988;52.614;13.500;2022-09-01T08:24:19;1.83;;;0.80;;
13834;SDS011;6988;52.614;13.500;2022-09-01T08:29:11;3.07;;;0.70;;
13834;SDS011;6988;52.614;13.500;2022-09-01T08:34:05;0.80;;;0.70;;
13834;SDS011;6988;52.614;13.500;2022-09-01T08:38:57;1.58;;;0.70;;
13834;SDS011;6988;52.614;13.500;2022-09-01T08:43:58;0.73;;;0.50;;
13834;SDS011;6988;52.614;13.500;2022-09-01T08:49:05;1.60;;;0.80;;
13834;SDS011;6988;52.614;13.500;2022-09-01T08:54:22;1.48;;;0.70;;
13834;SDS011;6988;52.614;13.500;2022-09-01T08:59:25;2.10;;;0.70;;
13834;SDS011;6988;52.614;13.500;2022-09-01T09:04:38;1.25;;;0.60;;
13834;SDS011;6988;52.614;13.500;2022-09-01T09:09:49;0.60;;;0.60;;
13834;SDS011;6988;52.614;13.500;2022-09-01T09:14:53;2.05;;;0.50;;
13834;SDS011;6988;52.614;13.500;2022-09-01T09:19:59;1.80;;;0.47;;
13834;SDS011;6988;52.614;13.500;2022-09-01T09:24:53;2.28;;;0.55;;
13834;SDS011;6988;52.614;13.500;2022-09-01T09:29:54;1.42;;;0.50;;
13834;SDS011;6988;52.614;13.500;2022-09-01T09:34:48;0.90;;;0.50;;
13834;SDS011;6988;52.614;13.500;2022-09-01T09:39:40;1.85;;;0.50;;
13834;SDS011;6988;52.614;13.500;2022-09-01T09:44:32;0.80;;;0.43;;
13834;SDS011;6988;52.614;13.500;2022-09-01T09:49:26;0.77;;;0.50;;
13834;SDS011;6988;52.614;13.500;2022-09-01T09:54:22;1.23;;;0.50;;
13834;SDS011;6988;52.614;13.500;2022-09-01T09:59:19;0.70;;;0.40;;
13834;SDS011;6988;52.614;13.500;2022-09-01T10:09:32;0.50;;;0.50;;
13834;SDS011;6988;52.614;13.500;2022-09-01T10:14:28;0.70;;;0.50;;
13834;SDS011;6988;52.614;13.500;2022-09-01T10:19:32;1.20;;;0.50;;
13834;SDS011;6988;52.614;13.500;2022-09-01T10:24:31;1.30;;;0.60;;
13834;SDS011;6988;52.614;13.500;2022-09-01T10:29:27;1.02;;;0.60;;
13834;SDS011;6988;52.614;13.500;2022-09-01T10:34:25;1.67;;;0.70;;
13834;SDS011;6988;52.614;13.500;2022-09-01T10:39:23;1.75;;;0.70;;
13834;SDS011;6988;52.614;13.500;2022-09-01T10:44:19;0.73;;;0.50;;
13834;SDS011;6988;52.614;13.500;2022-09-01T10:49:20;1.35;;;0.50;;
13834;SDS011;6988;52.614;13.500;2022-09-01T10:54:52;1.75;;;0.50;;
13834;SDS011;6988;52.614;13.500;2022-09-01T10:59:50;17.10;;;1.40;;
13834;SDS011;6988;52.614;13.500;2022-09-01T11:10:15;0.38;;;0.38;;
13834;SDS011;6988;52.614;13.500;2022-09-01T11:15:38;1.90;;;0.50;;
13834;SDS011;6988;52.614;13.500;2022-09-01T11:20:33;1.50;;;0.40;;
13834;SDS011;6988;52.614;13.500;2022-09-01T11:25:33;0.93;;;0.50;;
13834;SDS011;6988;52.614;13.500;2022-09-01T11:30:34;0.95;;;0.43;;
13834;SDS011;6988;52.614;13.500;2022-09-01T11:35:41;2.95;;;0.50;;
13834;SDS011;6988;52.614;13.500;2022-09-01T11:40:36;1.00;;;0.40;;
13834;SDS011;6988;52.614;13.500;2022-09-01T11:45:28;2.05;;;0.50;;
13834;SDS011;6988;52.614;13.500;2022-09-01T11:50:26;1.60;;;0.60;;
13834;SDS011;6988;52.614;13.500;2022-09-01T11:55:28;0.43;;;0.40;;
13834;SDS011;6988;52.614;13.500;2022-09-01T12:00:25;0.70;;;0.60;;
13834;SDS011;6988;52.614;13.500;2022-09-01T12:05:27;2.60;;;0.52;;
13834;SDS011;6988;52.614;13.500;2022-09-01T12:10:23;1.38;;;0.70;;
13834;SDS011;6988;52.614;13.500;2022-09-01T12:15:23;2.08;;;0.60;;
13834;SDS011;6988;52.614;13.500;2022-09-01T12:20:18;1.55;;;0.50;;
13834;SDS011;6988;52.614;13.500;2022-09-01T12:25:22;0.55;;;0.50;;
13834;SDS011;6988;52.614;13.500;2022-09-01T12:30:18;1.58;;;0.60;;
13834;SDS011;6988;52.614;13.500;2022-09-01T12:35:13;1.10;;;0.52;;
13834;SDS011;6988;52.614;13.500;2022-09-01T12:40:33;0.70;;;0.40;;
13834;SDS011;6988;52.614;13.500;2022-09-01T12:45:36;1.50;;;0.47;;
13834;SDS011;6988;52.614;13.500;2022-09-01T12:50:32;0.68;;;0.40;;
13834;SDS011;6988;52.614;13.500;2022-09-01T12:55:37;5.38;;;2.80;;
13834;SDS011;6988;52.614;13.500;2022-09-01T13:00:29;2.45;;;0.50;;
13834;SDS011;6988;52.614;13.500;2022-09-01T13:05:26;1.48;;;0.63;;
13834;SDS011;6988;52.614;13.500;2022-09-01T13:10:21;1.05;;;0.47;;
13834;SDS011;6988;52.614;13.500;2022-09-01T13:15:18;2.08;;;0.50;;
13834;SDS011;6988;52.614;13.500;2022-09-01T13:20:11;0.63;;;0.38;;
13834;SDS011;6988;52.614;13.500;2022-09-01T13:25:04;1.25;;;0.40;;
13834;SDS011;6988;52.614;13.500;2022-09-01T13:29:57;1.15;;;0.50;;
13834;SDS011;6988;52.614;13.500;2022-09-01T13:34:51;1.25;;;0.50;;
13834;SDS011;6988;52.614;13.500;2022-09-01T13:39:43;2.78;;;0.95;;
13834;SDS011;6988;52.614;13.500;2022-09-01T13:44:36;2.45;;;0.57;;
13834;SDS011;6988;52.614;13.500;2022-09-01T13:49:27;2.05;;;0.40;;
13834;SDS011;6988;52.614;13.500;2022-09-01T13:54:21;1.42;;;0.55;;
13834;SDS011;6988;52.614;13.500;2022-09-01T13:59:13;1.65;;;0.43;;
13834;SDS011;6988;52.614;13.500;2022-09-01T14:04:04;0.80;;;0.47;;
13834;SDS011;6988;52.614;13.500;2022-09-01T14:08:56;4.90;;;0.55;;
13834;SDS011;6988;52.614;13.500;2022-09-01T14:13:49;0.50;;;0.43;;
13834;SDS011;6988;52.614;13.500;2022-09-01T14:18:41;1.20;;;0.50;;
13834;SDS011;6988;52.614;13.500;2022-09-01T14:23:33;1.33;;;0.50;;
13834;SDS011;6988;52.614;13.500;2022-09-01T14:28:25;3.28;;;0.60;;
13834;SDS011;6988;52.614;13.500;2022-09-01T14:33:18;1.85;;;0.70;;
13834;SDS011;6988;52.614;13.500;2022-09-01T14:38:13;1.00;;;0.40;;
13834;SDS011;6988;52.614;13.500;2022-09-01T14:43:06;0.90;;;0.50;;
13834;SDS011;6988;52.614;13.500;2022-09-01T14:48:03;1.50;;;0.40;;
13834;SDS011;6988;52.614;13.500;2022-09-01T14:52:57;1.35;;;0.40;;
13834;SDS011;6988;52.614;13.500;2022-09-01T14:57:51;0.60;;;0.47;;
13834;SDS011;6988;52.614;13.500;2022-09-01T15:02:44;1.58;;;0.50;;
13834;SDS011;6988;52.614;13.500;2022-09-01T15:07:36;2.95;;;0.70;;
13834;SDS011;6988;52.614;13.500;2022-09-01T15:12:30;6.18;;;0.85;;
13834;SDS011;6988;52.614;13.500;2022-09-01T15:17:22;1.60;;;0.40;;
13834;SDS011;6988;52.614;13.500;2022-09-01T15:22:13;1.92;;;0.50;;
13834;SDS011;6988;52.614;13.500;2022-09-01T15:27:05;0.63;;;0.43;;
13834;SDS011;6988;52.614;13.500;2022-09-01T15:31:58;0.73;;;0.43;;
13834;SDS011;6988;52.614;13.500;2022-09-01T15:36:51;1.85;;;0.60;;
13834;SDS011;6988;52.614;13.500;2022-09-01T15:41:42;1.92;;;0.57;;
13834;SDS011;6988;52.614;13.500;2022-09-01T15:46:35;1.13;;;0.57;;
13834;SDS011;6988;52.614;13.500;2022-09-01T15:51:32;1.92;;;0.70;;
13834;SDS011;6988;52.614;13.500;2022-09-01T15:56:26;0.40;;;0.40;;
13834;SDS011;6988;52.614;13.500;2022-09-01T16:01:20;1.43;;;0.40;;
13834;SDS011;6988;52.614;13.500;2022-09-01T16:06:12;2.30;;;0.40;;
13834;SDS011;6988;52.614;13.500;2022-09-01T16:11:05;0.77;;;0.50;;
13834;SDS011;6988;52.614;13.500;2022-09-01T16:16:04;1.07;;;0.40;;
13834;SDS011;6988;52.614;13.500;2022-09-01T16:21:22;1.30;;;0.47;;
13834;SDS011;6988;52.614;13.500;2022-09-01T16:26:26;1.43;;;0.50;;
13834;SDS011;6988;52.614;13.500;2022-09-01T16:31:18;1.67;;;0.50;;
13834;SDS011;6988;52.614;13.500;2022-09-01T16:36:17;0.97;;;0.50;;
13834;SDS011;6988;52.614;13.500;2022-09-01T16:41:33;2.57;;;0.50;;
13834;SDS011;6988;52.614;13.500;2022-09-01T16:46:38;0.97;;;0.50;;
13834;SDS011;6988;52.614;13.500;2022-09-01T16:51:43;1.67;;;0.50;;
13834;SDS011;6988;52.614;13.500;2022-09-01T16:56:48;1.17;;;0.40;;
13834;SDS011;6988;52.614;13.500;2022-09-01T17:01:52;1.80;;;0.57;;
13834;SDS011;6988;52.614;13.500;2022-09-01T17:07:01;1.30;;;0.57;;
13834;SDS011;6988;52.614;13.500;2022-09-01T17:17:23;2.27;;;0.70;;
13834;SDS011;6988;52.614;13.500;2022-09-01T17:22:24;0.80;;;0.60;;
13834;SDS011;6988;52.614;13.500;2022-09-01T17:27:17;2.33;;;0.60;;
13834;SDS011;6988;52.614;13.500;2022-09-01T17:32:18;0.70;;;0.67;;
13834;SDS011;6988;52.614;13.500;2022-09-01T17:37:30;1.23;;;0.50;;
13834;SDS011;6988;52.614;13.500;2022-09-01T17:42:37;1.10;;;0.60;;
13834;SDS011;6988;52.614;13.500;2022-09-01T17:47:44;1.90;;;0.60;;
13834;SDS011;6988;52.614;13.500;2022-09-01T17:52:50;2.80;;;0.70;;
13834;SDS011;6988;52.614;13.500;2022-09-01T17:57:57;3.57;;;0.90;;
13834;SDS011;6988;52.614;13.500;2022-09-01T18:03:04;1.30;;;0.97;;
13834;SDS011;6988;52.614;13.500;2022-09-01T18:08:17;1.57;;;0.67;;
13834;SDS011;6988;52.614;13.500;2022-09-01T18:13:23;1.20;;;0.90;;
13834;SDS011;6988;52.614;13.500;2022-09-01T18:18:24;3.63;;;0.90;;
13834;SDS011;6988;52.614;13.500;2022-09-01T18:23:22;1.70;;;0.80;;
13834;SDS011;6988;52.614;13.500;2022-09-01T18:28:15;1.17;;;0.80;;
13834;SDS011;6988;52.614;13.500;2022-09-01T18:33:13;1.00;;;0.80;;
13834;SDS011;6988;52.614;13.500;2022-09-01T18:38:19;1.10;;;0.70;;
13834;SDS011;6988;52.614;13.500;2022-09-01T18:43:25;1.80;;;0.80;;
13834;SDS011;6988;52.614;13.500;2022-09-01T18:48:31;2.87;;;1.00;;
13834;SDS011;6988;52.614;13.500;2022-09-01T18:53:46;1.10;;;0.90;;
13834;SDS011;6988;52.614;13.500;2022-09-01T18:58:46;5.33;;;1.10;;
13834;SDS011;6988;52.614;13.500;2022-09-01T19:03:54;2.43;;;1.17;;
13834;SDS011;6988;52.614;13.500;2022-09-01T19:08:59;1.63;;;1.50;;
13834;SDS011;6988;52.614;13.500;2022-09-01T19:14:05;3.10;;;1.70;;
13834;SDS011;6988;52.614;13.500;2022-09-01T19:19:13;3.77;;;1.50;;
13834;SDS011;6988;52.614;13.500;2022-09-01T19:24:23;3.40;;;1.30;;
13834;SDS011;6988;52.614;13.500;2022-09-01T19:29:22;1.97;;;1.40;;
13834;SDS011;6988;52.614;13.500;2022-09-01T19:34:22;1.90;;;1.20;;
13834;SDS011;6988;52.614;13.500;2022-09-01T19:39:19;2.30;;;1.03;;
13834;SDS011;6988;52.614;13.500;2022-09-01T19:44:17;1.63;;;1.23;;
13834;SDS011;6988;52.614;13.500;2022-09-01T19:49:22;2.00;;;1.10;;
13834;SDS011;6988;52.614;13.500;2022-09-01T19:54:27;1.53;;;1.20;;
13834;SDS011;6988;52.614;13.500;2022-09-01T19:59:36;2.83;;;1.30;;
13834;SDS011;6988;52.614;13.500;2022-09-01T20:04:47;1.47;;;1.10;;
13834;SDS011;6988;52.614;13.500;2022-09-01T20:09:48;1.57;;;1.00;;
13834;SDS011;6988;52.614;13.500;2022-09-01T20:14:53;2.23;;;0.97;;
13834;SDS011;6988;52.614;13.500;2022-09-01T20:20:02;1.53;;;1.07;;
13834;SDS011;6988;52.614;13.500;2022-09-01T20:25:00;2.00;;;1.00;;
13834;SDS011;6988;52.614;13.500;2022-09-01T20:30:00;1.77;;;1.00;;
13834;SDS011;6988;52.614;13.500;2022-09-01T20:35:04;1.27;;;0.97;;
13834;SDS011;6988;52.614;13.500;2022-09-01T20:40:04;1.13;;;0.87;;
13834;SDS011;6988;52.614;13.500;2022-09-01T20:45:02;1.97;;;1.07;;
13834;SDS011;6988;52.614;13.500;2022-09-01T20:50:05;1.93;;;1.10;;
13834;SDS011;6988;52.614;13.500;2022-09-01T20:55:06;1.27;;;1.13;;
13834;SDS011;6988;52.614;13.500;2022-09-01T21:00:04;1.33;;;1.10;;
13834;SDS011;6988;52.614;13.500;2022-09-01T21:05:11;1.10;;;1.00;;
13834;SDS011;6988;52.614;13.500;2022-09-01T21:10:19;1.93;;;0.97;;
13834;SDS011;6988;52.614;13.500;2022-09-01T21:15:23;2.17;;;1.30;;
13834;SDS011;6988;52.614;13.500;2022-09-01T21:20:31;2.03;;;1.20;;
13834;SDS011;6988;52.614;13.500;2022-09-01T21:25:41;1.53;;;1.20;;
13834;SDS011;6988;52.614;13.500;2022-09-01T21:30:34;1.10;;;1.00;;
13834;SDS011;6988;52.614;13.500;2022-09-01T21:35:26;2.50;;;1.27;;
13834;SDS011;6988;52.614;13.500;2022-09-01T21:40:20;1.67;;;1.33;;
13834;SDS011;6988;52.614;13.500;2022-09-01T22:04:03;2.93;;;1.40;;
13834;SDS011;6988;52.614;13.500;2022-09-01T22:08:55;2.53;;;1.53;;
13834;SDS011;6988;52.614;13.500;2022-09-01T22:13:49;2.23;;;1.20;;
13834;SDS011;6988;52.614;13.500;2022-09-01T22:18:42;1.60;;;1.20;;
13834;SDS011;6988;52.614;13.500;2022-09-01T22:23:35;1.47;;;1.07;;
13834;SDS011;6988;52.614;13.500;2022-09-01T22:28:27;3.83;;;1.20;;
13834;SDS011;6988;52.614;13.500;2022-09-01T22:33:20;1.70;;;0.90;;
13834;SDS011;6988;52.614;13.500;2022-09-01T22:38:13;1.43;;;1.17;;
13834;SDS011;6988;52.614;13.500;2022-09-01T22:43:07;1.37;;;1.20;;
13834;SDS011;6988;52.614;13.500;2022-09-01T22:47:59;1.80;;;1.03;;
13834;SDS011;6988;52.614;13.500;2022-09-01T22:52:50;1.80;;;1.20;;
13834;SDS011;6988;52.614;13.500;2022-09-01T22:57:42;1.50;;;1.20;;
13834;SDS011;6988;52.614;13.500;2022-09-01T23:02:35;1.07;;;0.90;;
13834;SDS011;6988;52.614;13.500;2022-09-01T23:07:27;1.20;;;1.00;;
13834;SDS011;6988;52.614;13.500;2022-09-01T23:12:19;1.73;;;0.90;;
13834;SDS011;6988;52.614;13.500;2022-09-01T23:17:11;2.80;;;1.47;;
13834;SDS011;6988;52.614;13.500;2022-09-01T23:22:04;1.50;;;1.00;;
13834;SDS011;6988;52.614;13.500;2022-09-01T23:26:55;1.40;;;1.13;;
13834;SDS011;6988;52.614;13.500;2022-09-01T23:31:47;1.23;;;1.00;;
13834;SDS011;6988;52.614;13.500;2022-09-01T23:36:39;1.50;;;1.27;;
13834;SDS011;6988;52.614;13.500;2022-09-01T23:41:35;2.70;;;0.97;;
13834;SDS011;6988;52.614;13.500;2022-09-01T23:46:28;1.63;;;1.40;;
13834;SDS011;6988;52.614;13.500;2022-09-01T23:51:24;2.53;;;1.00;;
13834;SDS011;6988;52.614;13.500;2022-09-01T23:56:18;1.43;;;1.30;;
